createdAt,value
2022-08-17T00:02:25.455Z,24.20
2022-08-17T00:05:33.391Z,24.20
2022-08-17T00:08:40.176Z,24.20
2022-08-17T00:12:42.111Z,24.20
2022-08-17T00:15:13.675Z,24.10
2022-08-17T00:19:03.834Z,24.10
2022-08-17T00:22:32.857Z,24.10
2022-08-17T00:25:20.454Z,24.10
2022-08-17T00:28:25.463Z,24.10
2022-08-17T00:31:30.808Z,24.00
2022-08-17T00:34:38.344Z,24.00
2022-08-17T00:37:43.395Z,24.00
2022-08-17T00:40:51.792Z,24.00
2022-08-17T00:43:59.375Z,23.90
2022-08-17T00:47:04.374Z,23.90
2022-08-17T00:50:15.227Z,23.90
2022-08-17T00:53:20.347Z,23.90
2022-08-17T00:56:31.203Z,23.90
2022-08-17T00:59:40.353Z,23.90
2022-08-17T01:02:48.051Z,23.90
2022-08-17T01:05:59.913Z,23.80
2022-08-17T01:09:07.018Z,23.80
2022-08-17T01:12:13.884Z,23.80
2022-08-17T01:15:19.340Z,23.80
2022-08-17T01:18:24.463Z,23.80
2022-08-17T01:21:49.650Z,23.80
2022-08-17T01:25:06.199Z,23.80
2022-08-17T01:28:11.382Z,23.70
2022-08-17T01:31:40.051Z,23.70
2022-08-17T01:34:50.498Z,23.60
2022-08-17T01:37:56.085Z,23.60
2022-08-17T01:41:06.631Z,23.60
2022-08-17T01:44:12.029Z,23.60
2022-08-17T01:47:17.055Z,23.50
2022-08-17T01:50:26.234Z,23.50
2022-08-17T01:53:35.447Z,23.50
2022-08-17T01:56:47.321Z,23.40
2022-08-17T01:59:52.791Z,23.40
2022-08-17T02:02:57.804Z,23.30
2022-08-17T02:06:03.002Z,23.30
2022-08-17T02:09:16.419Z,23.30
2022-08-17T02:12:38.778Z,23.20
2022-08-17T02:15:44.982Z,23.20
2022-08-17T02:18:50.139Z,23.20
2022-08-17T02:21:56.839Z,23.20
2022-08-17T02:25:03.039Z,23.20
2022-08-17T02:28:11.002Z,23.20
2022-08-17T02:31:16.107Z,23.10
2022-08-17T02:34:21.446Z,23.10
2022-08-17T02:37:26.723Z,23.10
2022-08-17T02:40:36.406Z,23.00
2022-08-17T02:43:44.406Z,23.00
2022-08-17T02:46:49.366Z,23.00
2022-08-17T02:49:55.740Z,22.90
2022-08-17T02:53:02.538Z,22.90
2022-08-17T02:56:08.056Z,22.90
2022-08-17T02:59:15.630Z,22.90
2022-08-17T03:02:20.667Z,22.80
2022-08-17T03:05:29.564Z,22.80
2022-08-17T03:08:34.784Z,22.80
2022-08-17T03:11:39.871Z,22.80
2022-08-17T03:14:47.464Z,22.70
2022-08-17T03:17:52.443Z,22.70
2022-08-17T03:20:59.779Z,22.70
2022-08-17T03:24:08.993Z,22.70
2022-08-17T03:27:14.251Z,22.70
2022-08-17T03:30:22.495Z,22.70
2022-08-17T03:33:27.517Z,22.60
2022-08-17T03:36:32.477Z,22.60
2022-08-17T03:39:41.404Z,22.60
2022-08-17T03:42:47.386Z,22.60
2022-08-17T03:46:26.936Z,22.60
2022-08-17T03:49:44.866Z,22.60
2022-08-17T03:53:04.868Z,22.50
2022-08-17T03:56:22.746Z,22.50
2022-08-17T03:59:27.747Z,22.40
2022-08-17T04:02:36.847Z,22.40
2022-08-17T04:05:41.942Z,22.40
2022-08-17T04:08:46.930Z,22.30
2022-08-17T04:11:52.161Z,22.30
2022-08-17T04:14:57.195Z,22.30
2022-08-17T04:18:04.734Z,22.20
2022-08-17T04:21:12.138Z,22.20
2022-08-17T04:24:17.164Z,22.20
2022-08-17T04:27:23.959Z,22.10
2022-08-17T04:30:32.170Z,22.10
2022-08-17T04:33:42.671Z,22.10
2022-08-17T04:36:50.301Z,22.10
2022-08-17T04:40:07.966Z,22.10
2022-08-17T04:43:15.968Z,22.00
2022-08-17T04:46:27.272Z,22.00
2022-08-17T04:49:35.309Z,22.00
2022-08-17T04:52:48.487Z,22.00
2022-08-17T04:55:55.468Z,22.00
2022-08-17T04:59:02.613Z,22.00
2022-08-17T05:02:07.767Z,22.00
2022-08-17T05:05:15.468Z,22.00
2022-08-17T05:08:22.180Z,21.90
2022-08-17T05:11:28.854Z,21.90
2022-08-17T05:14:34.043Z,21.90
2022-08-17T05:17:39.435Z,21.90
2022-08-17T05:20:47.638Z,21.90
2022-08-17T05:23:58.536Z,21.90
2022-08-17T05:27:06.496Z,21.90
2022-08-17T05:30:12.573Z,21.90
2022-08-17T05:33:20.339Z,21.90
2022-08-17T05:36:42.985Z,21.90
2022-08-17T05:39:48.849Z,21.90
2022-08-17T05:42:54.317Z,21.90
2022-08-17T05:46:05.634Z,21.90
2022-08-17T05:49:11.490Z,21.90
2022-08-17T05:52:29.206Z,21.90
2022-08-17T05:55:44.747Z,21.90
2022-08-17T05:59:00.391Z,21.90
2022-08-17T06:02:12.160Z,21.90
2022-08-17T06:05:33.277Z,21.90
2022-08-17T06:08:51.617Z,21.90
2022-08-17T06:12:03.594Z,21.90
2022-08-17T06:15:26.264Z,21.90
2022-08-17T06:18:46.602Z,22.00
2022-08-17T06:21:56.413Z,21.90
2022-08-17T06:25:10.204Z,22.00
2022-08-17T06:28:20.233Z,22.00
2022-08-17T06:31:29.388Z,22.00
2022-08-17T06:34:36.088Z,22.00
2022-08-17T06:38:06.273Z,22.10
2022-08-17T06:41:20.173Z,22.10
2022-08-17T06:44:42.189Z,22.20
2022-08-17T06:48:00.870Z,22.30
2022-08-17T06:51:12.274Z,22.40
2022-08-17T06:54:25.884Z,22.40
2022-08-17T06:57:35.259Z,22.50
2022-08-17T07:00:46.068Z,22.60
2022-08-17T07:03:56.470Z,22.70
2022-08-17T07:07:24.843Z,22.80
2022-08-17T07:10:31.823Z,22.90
2022-08-17T07:13:50.516Z,23.10
2022-08-17T07:16:59.470Z,23.20
2022-08-17T07:20:08.595Z,23.30
2022-08-17T07:23:25.049Z,23.50
2022-08-17T07:26:30.280Z,23.60
2022-08-17T07:29:42.607Z,23.70
2022-08-17T07:32:50.822Z,23.90
2022-08-17T07:35:57.397Z,24.00
2022-08-17T07:39:03.697Z,24.10
2022-08-17T07:42:08.931Z,24.20
2022-08-17T07:45:30.082Z,24.30
2022-08-17T07:48:40.559Z,24.40
2022-08-17T07:52:00.460Z,24.50
2022-08-17T07:55:32.929Z,24.60
2022-08-17T07:58:42.237Z,24.70
2022-08-17T08:02:06.317Z,24.70
2022-08-17T08:05:31.739Z,24.80
2022-08-17T08:08:54.897Z,24.80
2022-08-17T08:12:00.348Z,24.90
2022-08-17T08:15:15.479Z,24.90
2022-08-17T08:18:54.107Z,25.00
2022-08-17T08:22:05.693Z,25.00
2022-08-17T08:25:53.612Z,25.00
2022-08-17T08:29:10.975Z,25.00
2022-08-17T08:32:22.223Z,25.00
2022-08-17T08:35:34.563Z,25.00
2022-08-17T08:38:52.189Z,25.00
2022-08-17T08:42:07.642Z,25.00
2022-08-17T08:45:19.895Z,25.00
2022-08-17T08:48:57.808Z,25.00
2022-08-17T08:52:09.910Z,25.10
2022-08-17T08:55:23.115Z,25.10
2022-08-17T08:58:41.396Z,25.20
2022-08-17T09:01:56.535Z,25.30
2022-08-17T09:05:15.681Z,25.40
2022-08-17T09:08:31.879Z,25.50
2022-08-17T09:12:02.393Z,25.60
2022-08-17T09:15:17.843Z,25.70
2022-08-17T09:18:59.895Z,25.80
2022-08-17T09:21:55.288Z,25.90
2022-08-17T09:25:13.699Z,25.90
2022-08-17T09:28:24.022Z,26.00
2022-08-17T09:31:46.424Z,26.10
2022-08-17T09:34:56.843Z,26.10
2022-08-17T09:38:07.986Z,26.10
2022-08-17T09:41:20.966Z,26.10
2022-08-17T09:44:33.665Z,26.20
2022-08-17T09:47:45.543Z,26.20
2022-08-17T09:51:05.761Z,26.20
2022-08-17T09:54:38.539Z,26.20
2022-08-17T09:58:00.602Z,26.20
2022-08-17T10:01:17.920Z,26.20
2022-08-17T10:04:38.440Z,26.30
2022-08-17T10:07:52.625Z,26.30
2022-08-17T10:11:13.598Z,26.30
2022-08-17T10:14:37.268Z,26.40
2022-08-17T10:18:07.747Z,26.40
2022-08-17T10:21:28.260Z,26.50
2022-08-17T10:25:21.507Z,26.50
2022-08-17T10:28:19.774Z,26.60
2022-08-17T10:31:34.740Z,26.70
2022-08-17T10:35:06.832Z,26.80
2022-08-17T10:38:31.937Z,26.80
2022-08-17T10:41:43.163Z,26.90
2022-08-17T10:44:51.972Z,27.00
2022-08-17T10:48:06.317Z,27.00
2022-08-17T10:51:13.783Z,27.00
2022-08-17T10:54:37.839Z,27.10
2022-08-17T10:57:45.479Z,27.10
2022-08-17T11:01:12.771Z,27.10
2022-08-17T11:04:40.516Z,27.10
2022-08-17T11:08:05.515Z,27.10
2022-08-17T11:11:27.533Z,27.10
2022-08-17T11:14:50.084Z,27.10
2022-08-17T11:18:17.878Z,27.10
2022-08-17T11:22:04.455Z,27.10
2022-08-17T11:25:17.974Z,27.10
2022-08-17T11:28:28.112Z,27.10
2022-08-17T11:31:38.872Z,27.10
2022-08-17T11:34:46.204Z,27.10
2022-08-17T11:38:03.825Z,27.10
2022-08-17T11:41:24.030Z,27.10
2022-08-17T11:44:40.563Z,27.10
2022-08-17T11:48:26.513Z,27.10
2022-08-17T11:52:12.519Z,27.10
2022-08-17T11:56:02.522Z,27.10
2022-08-17T11:59:46.053Z,27.10
2022-08-17T12:03:11.293Z,27.10
2022-08-17T12:06:43.922Z,27.20
2022-08-17T12:09:53.660Z,27.20
2022-08-17T12:12:59.008Z,27.30
2022-08-17T12:16:09.412Z,27.40
2022-08-17T12:19:23.842Z,27.40
2022-08-17T12:22:33.550Z,27.50
2022-08-17T12:25:44.193Z,27.50
2022-08-17T12:28:51.062Z,27.60
2022-08-17T12:31:59.462Z,27.60
2022-08-17T12:35:07.090Z,27.60
2022-08-17T12:38:26.721Z,27.70
2022-08-17T12:41:41.353Z,27.70
2022-08-17T12:44:50.382Z,27.80
2022-08-17T12:48:09.143Z,27.80
2022-08-17T12:51:15.635Z,27.80
2022-08-17T12:54:28.337Z,27.80
2022-08-17T12:57:36.268Z,27.80
2022-08-17T13:00:47.610Z,27.80
2022-08-17T13:03:59.742Z,27.80
2022-08-17T13:07:05.377Z,27.80
2022-08-17T13:10:27.423Z,27.80
2022-08-17T13:13:37.342Z,27.70
2022-08-17T13:16:42.298Z,27.70
2022-08-17T13:19:54.072Z,27.70
2022-08-17T13:23:01.239Z,27.70
2022-08-17T13:26:09.470Z,27.60
2022-08-17T13:29:24.128Z,27.60
2022-08-17T13:32:39.933Z,27.50
2022-08-17T13:35:52.289Z,27.50
2022-08-17T13:39:10.027Z,27.50
2022-08-17T13:42:33.779Z,27.40
2022-08-17T13:46:11.160Z,27.30
2022-08-17T13:49:24.656Z,27.20
2022-08-17T13:52:52.107Z,27.20
2022-08-17T13:56:02.032Z,27.20
2022-08-17T13:59:09.943Z,27.10
2022-08-17T14:02:16.237Z,27.10
2022-08-17T14:05:21.464Z,27.10
2022-08-17T14:08:30.854Z,27.00
2022-08-17T14:11:35.830Z,26.90
2022-08-17T14:14:43.068Z,26.90
2022-08-17T14:17:49.189Z,26.80
2022-08-17T14:20:56.793Z,26.80
2022-08-17T14:24:04.321Z,26.80
2022-08-17T14:27:10.746Z,26.70
2022-08-17T14:30:17.484Z,26.70
2022-08-17T14:33:22.791Z,26.70
2022-08-17T14:36:27.822Z,26.70
2022-08-17T14:39:35.433Z,26.60
2022-08-17T14:42:42.184Z,26.50
2022-08-17T14:45:47.367Z,26.50
2022-08-17T14:48:57.210Z,26.50
2022-08-17T14:52:03.221Z,26.40
2022-08-17T14:55:13.209Z,26.40
2022-08-17T14:58:18.398Z,26.30
2022-08-17T15:01:24.646Z,26.20
2022-08-17T15:04:30.027Z,26.20
2022-08-17T15:07:34.986Z,26.10
2022-08-17T15:10:42.518Z,26.10
2022-08-17T15:13:52.884Z,26.00
2022-08-17T15:16:58.494Z,25.90
2022-08-17T15:20:03.562Z,25.90
2022-08-17T15:23:09.693Z,25.80
2022-08-17T15:26:17.374Z,25.80
2022-08-17T15:29:22.701Z,25.70
2022-08-17T15:32:29.486Z,25.70
2022-08-17T15:35:37.451Z,25.60
2022-08-17T15:38:44.392Z,25.60
2022-08-17T15:41:58.030Z,25.50
2022-08-17T15:45:08.580Z,25.50
2022-08-17T15:48:14.307Z,25.50
2022-08-17T15:51:22.524Z,25.40
2022-08-17T15:54:31.796Z,25.30
2022-08-17T15:57:42.765Z,25.30
2022-08-17T16:00:53.548Z,25.20
2022-08-17T16:04:29.920Z,25.20
2022-08-17T16:07:36.437Z,25.10
2022-08-17T16:10:41.474Z,25.10
2022-08-17T16:13:54.765Z,25.00
2022-08-17T16:17:01.803Z,25.00
2022-08-17T16:20:08.553Z,24.90
2022-08-17T16:23:18.460Z,24.90
2022-08-17T16:26:25.646Z,24.80
2022-08-17T16:29:33.531Z,24.80
2022-08-17T16:32:38.959Z,24.70
2022-08-17T16:35:44.623Z,24.70
2022-08-17T16:38:50.035Z,24.70
2022-08-17T16:41:55.730Z,24.70
2022-08-17T16:45:07.355Z,24.80
2022-08-17T16:48:12.727Z,24.80
2022-08-17T16:51:17.664Z,24.80
2022-08-17T16:54:23.021Z,24.80
2022-08-17T16:57:28.325Z,24.80
2022-08-17T17:00:36.277Z,24.80
2022-08-17T17:03:45.412Z,24.80
2022-08-17T17:07:01.321Z,24.80
2022-08-17T17:10:10.482Z,24.80
2022-08-17T17:13:23.723Z,24.70
2022-08-17T17:16:38.127Z,24.70
2022-08-17T17:19:53.731Z,24.70
2022-08-17T17:23:07.071Z,24.60
2022-08-17T17:26:38.072Z,24.60
2022-08-17T17:29:54.565Z,24.60
2022-08-17T17:33:07.601Z,24.50
2022-08-17T17:36:27.154Z,24.50
2022-08-17T17:39:41.693Z,24.50
2022-08-17T17:42:51.117Z,24.40
2022-08-17T17:46:26.668Z,24.40
2022-08-17T17:49:28.604Z,24.40
2022-08-17T17:52:41.291Z,24.30
2022-08-17T17:56:04.271Z,24.30
2022-08-17T17:59:14.636Z,24.30
2022-08-17T18:02:47.344Z,24.20
2022-08-17T18:06:21.286Z,24.20
2022-08-17T18:09:36.690Z,24.10
2022-08-17T18:12:48.525Z,24.00
2022-08-17T18:15:56.408Z,24.00
2022-08-17T18:19:03.012Z,24.00
2022-08-17T18:22:14.580Z,24.00
2022-08-17T18:25:43.624Z,24.00
2022-08-17T18:28:53.522Z,23.90
2022-08-17T18:32:31.356Z,23.90
2022-08-17T18:35:36.584Z,23.80
2022-08-17T18:38:46.410Z,23.80
2022-08-17T18:41:54.097Z,23.80
2022-08-17T18:44:59.437Z,23.80
2022-08-17T18:48:05.111Z,23.70
2022-08-17T18:51:42.156Z,23.70
2022-08-17T18:55:11.638Z,23.70
2022-08-17T18:58:20.861Z,23.60
2022-08-17T19:01:42.052Z,23.60
2022-08-17T19:05:13.405Z,23.60
2022-08-17T19:08:25.042Z,23.50
2022-08-17T19:11:36.895Z,23.50
2022-08-17T19:14:42.963Z,23.50
2022-08-17T19:17:53.785Z,23.40
2022-08-17T19:21:05.327Z,23.40
2022-08-17T19:24:19.556Z,23.40
2022-08-17T19:27:41.792Z,23.30
2022-08-17T19:31:05.892Z,23.30
2022-08-17T19:34:11.890Z,23.30
2022-08-17T19:37:30.040Z,23.20
2022-08-17T19:40:52.933Z,23.20
2022-08-17T19:44:19.279Z,23.10
2022-08-17T19:47:53.773Z,23.10
2022-08-17T19:51:04.239Z,23.00
2022-08-17T19:54:18.799Z,23.00
2022-08-17T19:57:44.215Z,23.00
2022-08-17T20:00:54.065Z,22.90
2022-08-17T20:04:06.047Z,22.90
2022-08-17T20:07:15.070Z,22.80
2022-08-17T20:10:28.902Z,22.80
2022-08-17T20:13:39.587Z,22.70
2022-08-17T20:16:47.334Z,22.80
2022-08-17T20:19:55.831Z,22.70
2022-08-17T20:23:06.799Z,22.70
2022-08-17T20:26:20.254Z,22.60
2022-08-17T20:29:40.093Z,22.60
2022-08-17T20:32:57.270Z,22.60
2022-08-17T20:36:20.370Z,22.50
2022-08-17T20:39:36.071Z,22.50
2022-08-17T20:42:41.083Z,22.50
2022-08-17T20:46:15.520Z,22.40
2022-08-17T20:49:30.794Z,22.40
2022-08-17T20:52:52.088Z,22.40
2022-08-17T20:55:57.202Z,22.40
2022-08-17T20:59:02.822Z,22.30
2022-08-17T21:02:18.928Z,22.30
2022-08-17T21:05:35.493Z,22.30
2022-08-17T21:08:46.382Z,22.30
2022-08-17T21:12:04.409Z,22.20
2022-08-17T21:15:19.169Z,22.20
2022-08-17T21:18:38.624Z,22.20
2022-08-17T21:21:54.718Z,22.10
2022-08-17T21:25:09.555Z,22.10
2022-08-17T21:28:21.540Z,22.10
2022-08-17T21:31:36.299Z,22.10
2022-08-17T21:34:44.266Z,22.00
2022-08-17T21:37:55.541Z,22.00
2022-08-17T21:41:01.270Z,22.00
2022-08-17T21:44:09.156Z,22.00
2022-08-17T21:47:24.625Z,22.00
2022-08-17T21:50:30.062Z,22.00
2022-08-17T21:53:45.902Z,22.00
2022-08-17T21:56:51.711Z,22.00
2022-08-17T21:59:59.865Z,21.90
2022-08-17T22:03:07.302Z,21.90
2022-08-17T22:06:27.140Z,21.90
2022-08-17T22:09:36.941Z,21.90
2022-08-17T22:12:42.678Z,21.90
2022-08-17T22:15:50.560Z,21.90
2022-08-17T22:18:57.660Z,21.90
2022-08-17T22:22:06.293Z,21.90
2022-08-17T22:25:24.171Z,21.90
2022-08-17T22:28:45.773Z,21.80
2022-08-17T22:31:58.505Z,21.80
2022-08-17T22:35:29.885Z,21.80
2022-08-17T22:38:35.207Z,21.70
2022-08-17T22:41:46.207Z,21.70
2022-08-17T22:44:53.816Z,21.70
2022-08-17T22:48:00.296Z,21.70
2022-08-17T22:51:12.859Z,21.70
2022-08-17T22:54:33.947Z,21.60
2022-08-17T22:58:02.681Z,21.60
2022-08-17T23:01:26.533Z,21.60
2022-08-17T23:04:36.537Z,21.60
2022-08-17T23:07:42.412Z,21.60
2022-08-17T23:10:48.459Z,21.60
2022-08-17T23:13:56.725Z,21.60
2022-08-17T23:17:02.276Z,21.50
2022-08-17T23:20:09.193Z,21.60
2022-08-17T23:23:18.802Z,21.50
2022-08-17T23:26:27.752Z,21.50
2022-08-17T23:29:35.354Z,21.50
2022-08-17T23:32:42.976Z,21.50
2022-08-17T23:35:58.860Z,21.50
2022-08-17T23:39:03.986Z,21.50
2022-08-17T23:42:11.400Z,21.50
2022-08-17T23:45:19.124Z,21.50
2022-08-17T23:48:35.244Z,21.50
2022-08-17T23:51:44.151Z,21.50
2022-08-17T23:54:50.267Z,21.50
2022-08-17T23:57:55.207Z,21.50
